Helmville, Montana
Current Conditions -  °F | °C
As of 10:53 AM on Monday 24 Nov 2014 (Local Time) from KHLN Reporting Station
Clear Clear  
Wind Chill: 30°   Ceiling: Unl
Heat Index: 40°   Visibility: 10mi
Dew Point: 19°   Wind: 23mph
Humidity: 43%   Direction: 260°W
Pressure: 30.19"   Gusts: 28mph
Location:  46.87°N, 112.96°W
Report Text: KHLN 241753Z 26020G24KT 10SM CLR 04/M07 A3019 RMK AO2 PK WND 27032/1717 SLP259 T00441072 10044 20000 51020
Loading
Personal Weather Stations






























Interactive Weather Map New forecast layout! Learn more

10-Day Weather Forecast

Advertisements
Track Severe Weather on mobile